x

New London Ledge Ct - Ledge Light Weather Station (ldlc3) Weather Station

5:45pm - Tue 25th Apr 2017 All times are EDT. -4 hours from GMT.

  • Wind
    21mph, 26mph gusts
  • 空気 Temp 52°f
  • Sea Pressure 1016.5mb
  • New London Ledge Ct - Ledge Light Weather Station
  • New London Ledge Ct - Ledge Light Weather Station

More Historic Weather Station data

Upgrade to MSW Pro to gain access to the past 30 days of data for over 8000 Wavebouys and Weather Stations around the globe.

Join Pro

Comparision Forecast

View Surf forecast
   
Tue 04/25 5:45pm 21 26 mph 1016.5mb 52f
5:30pm 18 28 mph 1016.6mb 52f
5:15pm 17 25 mph 1016.9mb 52f
5:00pm 17 25 mph 1017mb 52f
4:45pm 18 24 mph 1017.3mb 52f
4:30pm 20 28 mph 1017.3mb 52f
4:15pm 23 30 mph 1017.3mb 52f
4:00pm 22 30 mph 1017.5mb 53f
3:45pm 21 30 mph 1017.7mb 53f
3:30pm 17 25 mph 1017.9mb 53f
3:15pm 18 24 mph 1017.9mb 53f
3:00pm 20 26 mph 1018mb 53f
2:45pm 18 25 mph 1018.3mb 53f
2:30pm 24 30 mph 1018.4mb 53f
2:15pm 20 26 mph 1018.5mb 53f
2:00pm 22 30 mph 1018.7mb 54f
1:45pm 21 28 mph 1018.7mb 54f
1:30pm 21 28 mph 1018.8mb 54f
1:15pm 21 29 mph 1018.5mb 55f
1:00pm 18 28 mph 1018.6mb 55f
12:45pm 17 25 mph 1018.8mb 55f
12:30pm 17 25 mph 1019.1mb 55f
12:15pm 22 30 mph 1019.2mb 55f
12:00pm 24 32 mph 1019.6mb 55f
11:45am 22 31 mph 1019.7mb 55f
11:30am 23 30 mph 1019.7mb 55f
11:15am 22 30 mph 1019.9mb 55f
11:00am 21 30 mph 1020.1mb 54f
10:45am 23 30 mph 1020.3mb 54f
10:30am 22 26 mph 1020.6mb 54f
10:15am 20 26 mph 1020.5mb 54f
10:00am 21 26 mph 1020.6mb 53f
9:45am 20 24 mph 1020.8mb 53f
9:30am 20 26 mph 1020.8mb 53f
9:15am 22 30 mph 1020.9mb 53f
9:00am 20 23 mph 1020.8mb 53f
8:45am 17 26 mph 1020.7mb 52f
8:30am 16 22 mph 1020.8mb 52f
8:15am 18 23 mph 1020.8mb 53f
8:00am 18 21 mph 1020.8mb 53f
7:45am 16 20 mph 1020.7mb 52f
7:30am 11 18 mph 1020.6mb 52f
7:15am 13 20 mph 1020.4mb 52f
7:00am 11 16 mph 1020.2mb 52f
6:45am 14 21 mph 1020.1mb 52f
6:30am 14 18 mph 1020.1mb 52f
6:15am 15 20 mph 1020.2mb 52f
6:00am 13 16 mph 1020.1mb 52f
5:45am 15 17 mph 1019.8mb 51f
5:30am 13 17 mph 1019.7mb 52f
5:15am 10 14 mph 1019.7mb 52f
5:00am 9 13 mph 1019.8mb 52f
4:45am 10 13 mph 1019.7mb 52f
4:30am 15 18 mph 1019.7mb 52f
4:15am 16 23 mph 1019.7mb 52f
4:00am 14 17 mph 1019.6mb 52f
3:45am 15 18 mph 1019.5mb 52f
3:30am 16 18 mph 1019.5mb 52f
3:15am 18 21 mph 1019.6mb 51f
3:00am 17 20 mph 1019.9mb 51f
2:45am 18 22 mph 1020.2mb 51f
2:30am 18 21 mph 1020.5mb 51f
2:15am 18 22 mph 1020.6mb 50f
2:00am 18 21 mph 1020.8mb 51f
1:45am 16 20 mph 1020.8mb 50f
1:30am 16 18 mph 1020.7mb 50f
1:15am 14 16 mph 1020.8mb 50f
1:00am 13 16 mph 1020.8mb 50f
Mon 04/24 7:45pm 5 6 mph 1021.3mb 49f
7:15pm 7 9 mph 1021.2mb 48f
7:00pm 7 8 mph 1021mb 47f
6:45pm 9 10 mph 1020.9mb 47f
6:30pm 7 9 mph 1021.1mb 47f
6:15pm 10 14 mph 1020.9mb 47f
6:00pm 8 9 mph 1021.2mb 47f
5:45pm 11 13 mph 1021.3mb 47f
5:30pm 9 10 mph 1021.3mb 47f
5:15pm 10 11 mph 1021.3mb 47f
5:00pm 10 11 mph 1021.3mb 47f
4:45pm 8 9 mph 1021.3mb 47f
4:30pm 10 11 mph 1021.2mb 47f
4:15pm 13 14 mph 1021.1mb 47f
4:00pm 13 15 mph 1021mb 48f
3:45pm 11 13 mph 1020.8mb 48f
3:30pm 11 13 mph 1020.8mb 49f
3:15pm 9
mph
1020.9mb 50f
3:00pm 8
mph
1020.9mb 50f
2:45pm 5 7 mph 1021.3mb 50f
2:30pm 5 6 mph 1021.3mb 50f
2:15pm 3 5 mph 1021.3mb 50f
2:00pm 6
mph
1021.6mb 49f
1:45pm 7 8 mph 1021.7mb 49f
1:30pm 8 9 mph 1021.8mb 49f
1:15pm 9 11 mph 1021.6mb 48f
1:00pm 11 13 mph 1021.5mb 49f
12:45pm 11
mph
1021.6mb 49f
12:30pm 10 11 mph 1021.7mb 49f
12:15pm 11 14 mph 1021.8mb 48f
12:00pm 10 11 mph 1021.8mb 49f
11:45am 6 7 mph 1021.7mb 49f
11:30am 7 8 mph 1021.8mb 49f
11:15am 5 6 mph 1021.9mb 49f
11:00am 6 7 mph 1022mb 48f
10:45am 5 6 mph 1022.1mb 49f
10:30am 2
mph
1022mb 49f
10:15am 2 3 mph 1021.9mb 49f
10:00am 5 6 mph 1021.9mb 49f
9:45am 5 7 mph 1021.9mb 49f
9:30am 5
mph
1022.2mb 49f
9:15am 3 5 mph 1022.4mb 51f
9:00am 3 5 mph 1022.2mb 51f
8:45am 3
mph
1022mb 50f
8:30am 2 3 mph 1021.9mb 49f
8:15am 3 5 mph 1021.8mb 48f
8:00am 2 3 mph 1021.7mb 48f
7:45am 2 5 mph 1021.6mb 47f
7:30am 3 5 mph 1021.2mb 47f
7:15am 5 6 mph 1021.1mb 44f
7:00am 2 5 mph 1020.9mb 45f
6:45am 3
mph
1020.7mb 46f
6:30am 2 3 mph 1020.5mb 46f
6:15am 5
mph
1020.4mb 44f
6:00am 2 3 mph 1020.4mb 43f
5:45am 1 2 mph 1020.4mb 44f
5:30am  -  1 mph 1020.2mb 44f
5:15am 1 2 mph 1020.2mb 44f
5:00am 1 2 mph 1019.9mb 45f
4:45am 2 3 mph 1019.8mb 45f
4:30am 1 2 mph 1019.8mb 45f
4:15am 1 2 mph 1019.6mb 46f
4:00am 2 3 mph 1019.7mb 46f
3:45am 3 5 mph 1019.8mb 46f
3:30am 7 8 mph 1019.6mb 46f
3:15am 7 8 mph 1019.5mb 46f
3:00am 8 9 mph 1019.5mb 46f
2:45am 5 7 mph 1019.6mb 46f
2:30am 6 7 mph 1019.5mb 47f
2:15am 5 7 mph 1019.7mb 46f
2:00am 6 8 mph 1019.8mb 47f
1:45am 7 8 mph 1019.8mb 47f
1:30am 7 8 mph 1020mb 46f
1:15am 7 8 mph 1020.2mb 46f
1:00am 8 9 mph 1020.3mb 46f
Sun 04/23 7:45pm 10 11 mph 1019.1mb 47f
7:15pm 11 13 mph 1018.7mb 47f
7:00pm 11 13 mph 1018.8mb 47f
6:45pm 13 14 mph 1018.9mb 48f
6:30pm 14 15 mph 1018.7mb 48f
6:15pm 14 15 mph 1018.7mb 48f
6:00pm 15 16 mph 1018.7mb 48f
5:45pm 15 16 mph 1018.6mb 48f
5:30pm 15 16 mph 1018.3mb 48f
5:15pm 14 15 mph 1018.2mb 48f
5:00pm 14 16 mph 1018.1mb 48f
4:45pm 14 15 mph 1017.9mb 48f
4:30pm 14 15 mph 1018.3mb 48f
4:15pm 13 14 mph 1018.3mb 48f
4:00pm 13 14 mph 1018mb 48f
3:45pm 15 17 mph 1018mb 48f
3:30pm 11 15 mph 1018mb 49f
3:15pm 8 10 mph 1018.2mb 50f
3:00pm 11 14 mph 1018.3mb 49f
2:45pm 10 13 mph 1018.5mb 49f
2:30pm 8 10 mph 1018.5mb 49f
2:15pm 8 9 mph 1018.6mb 50f
2:00pm 9 10 mph 1018.7mb 51f
1:45pm 9 11 mph 1018.7mb 51f
1:30pm 10 11 mph 1018.9mb 52f
1:15pm 11 13 mph 1018.6mb 50f
1:00pm 13
mph
1018.6mb 51f
12:45pm 11 13 mph 1018.5mb 51f
12:30pm 13 14 mph 1018.5mb 50f
12:15pm 14 15 mph 1018.6mb 50f
12:00pm 13 15 mph 1018.6mb 51f
11:45am 3 6 mph 1018.8mb 57f
11:30am 10
mph
1018.7mb 56f
11:15am 8 10 mph 1018.8mb 56f
11:00am 9 11 mph 1018.7mb 55f
10:45am 10 13 mph 1018.6mb 55f
10:30am 9 10 mph 1018.7mb 54f
10:15am 10 14 mph 1018.8mb 53f
10:00am 14 16 mph 1018.6mb 53f
9:45am 16 18 mph 1018.4mb 52f
9:30am 15 18 mph 1018.6mb 51f
9:15am 17 22 mph 1018.1mb 52f
9:00am 20 22 mph 1018.2mb 51f
8:45am 20 23 mph 1018.3mb 51f
8:30am 15 17 mph 1018.4mb 51f
8:15am 16 18 mph 1018.3mb 50f
8:00am 10 13 mph 1018.3mb 50f
7:45am 9 13 mph 1018.1mb 50f
7:30am 8 10 mph 1018.2mb 48f
7:15am 9 11 mph 1017.9mb 47f
7:00am 9 13 mph 1017.7mb 47f
6:45am 10 15 mph 1017.4mb 47f
6:30am 14 17 mph 1017.2mb 47f
6:15am 15 17 mph 1016.8mb 47f
6:00am 10 14 mph 1016.8mb 48f
5:45am 9 10 mph 1016.7mb 48f
5:30am 8 10 mph 1016.5mb 47f
5:15am 13 15 mph 1016.5mb 48f
5:00am 14 16 mph 1016.2mb 49f
4:45am 8 11 mph 1015.8mb 48f
4:30am 2
mph
1016mb 47f
4:15am 3 5 mph 1015.7mb 47f
4:00am 3 5 mph 1015.7mb 47f
3:45am 3 5 mph 1015.6mb 47f
3:30am 3 5 mph 1015.5mb 47f
3:15am 1 3 mph 1015.4mb 47f
3:00am 1 2 mph 1015.2mb 47f
2:45am 1 2 mph 1015.1mb 47f
2:30am 2 3 mph 1015.4mb 47f
2:15am 3
mph
1015.5mb 47f
2:00am 2 3 mph 1015.4mb 47f
1:45am 2 3 mph 1015.2mb 47f
1:30am 3
mph
1015.3mb 47f
1:15am 3
mph
1015.3mb 47f
1:00am 2 3 mph 1015.3mb 47f
Sat 04/22 7:45pm 7
mph
1013.5mb 47f
7:15pm 7
mph
1013mb 47f
7:00pm 6 7 mph 1013mb 47f
6:45pm 6
mph
1013mb 49f
6:30pm 3 5 mph 1012.8mb 49f
6:15pm 2
mph
1012.7mb 50f
6:00pm 2 3 mph 1012.8mb 49f
5:45pm  -  1 mph 1012.9mb 50f
5:30pm 2 3 mph 1012.6mb 51f
5:15pm 5 6 mph 1012.4mb 51f
5:00pm 7 8 mph 1012.4mb 50f
4:45pm 9 10 mph 1012.3mb 50f
4:30pm 8 9 mph 1012.3mb 50f
4:15pm 9 10 mph 1012.4mb 50f
4:00pm 11 13 mph 1012.1mb 50f
3:45pm 14 15 mph 1012mb 49f
3:30pm 13 15 mph 1011.9mb 50f
3:15pm 14 16 mph 1011.9mb 49f
3:00pm 14 16 mph 1011.6mb 50f
2:45pm 14 15 mph 1011.7mb 50f
2:30pm 11 14 mph 1012mb 50f
2:15pm 11 14 mph 1011.7mb 49f
2:00pm 16 17 mph 1011.9mb 49f
1:45pm 17 21 mph 1012mb 49f
1:30pm 17 20 mph 1012.1mb 49f
1:15pm 18 21 mph 1012.3mb 50f
1:00pm 18 21 mph 1012.5mb 50f
12:45pm 18 20 mph 1012.5mb 50f
12:30pm 14 16 mph 1012.7mb 50f
12:15pm 8 13 mph 1012.7mb 50f
12:00pm 8 9 mph 1012.9mb 49f
11:45am 8 9 mph 1013mb 49f
11:30am 10 13 mph 1013.2mb 49f
11:15am 8 9 mph 1013.3mb 49f
11:00am 8 11 mph 1013mb 49f
10:45am 10 14 mph 1013.1mb 48f
10:30am 13 16 mph 1013.2mb 48f
10:15am 15 18 mph 1012.8mb 48f
10:00am 14 16 mph 1012.7mb 48f
9:45am 14 16 mph 1012.4mb 48f
9:30am 15 16 mph 1012.4mb 48f
9:15am 14 17 mph 1012.3mb 47f
9:00am 14 16 mph 1012.3mb 47f
8:45am 15 18 mph 1012.3mb 48f
8:30am 13 16 mph 1012mb 47f
8:15am 11 15 mph 1012.2mb 47f
8:00am 11 14 mph 1012.4mb 47f
7:45am 10 14 mph 1012.3mb 47f
7:30am 10 11 mph 1012.4mb 46f
7:15am 10 14 mph 1012.1mb 46f
7:00am 13 16 mph 1012mb 46f
6:45am 13 15 mph 1012.2mb 46f
6:30am 11 15 mph 1011.9mb 46f
6:15am 13 15 mph 1012mb 46f
6:00am 14 16 mph 1012mb 46f
5:45am 15 18 mph 1011.5mb 46f
5:30am 18 22 mph 1011.5mb 47f
5:15am 18 22 mph 1011.3mb 47f
5:00am 15 18 mph 1011.4mb 47f
4:45am 15 18 mph 1011.8mb 47f
4:30am 16 18 mph 1011.7mb 47f
4:15am 16 20 mph 1012mb 48f
4:00am 13 14 mph 1012.3mb 48f
3:45am 14 16 mph 1012.1mb 48f
3:30am 14 16 mph 1012.1mb 49f
3:15am 13 15 mph 1012mb 49f
3:00am 10 14 mph 1012.3mb 49f
2:45am 8 10 mph 1012mb 49f
2:30am 9 11 mph 1012.2mb 49f
2:15am 6 8 mph 1012.1mb 49f
2:00am 5 7 mph 1012.5mb 49f
1:45am 7 10 mph 1012.4mb 49f
1:30am 6 9 mph 1012.4mb 49f
1:15am 6 9 mph 1012.6mb 49f
1:00am 10 14 mph 1012.6mb 48f